sensor_id;sensor_type;location;lat;lon;timestamp;P1;durP1;ratioP1;P2;durP2;ratioP2
14890;SDS011;7537;48.014;11.590;2023-07-20T00:03:10;2.75;;;2.90;;
14890;SDS011;7537;48.014;11.590;2023-07-20T00:08:41;4.88;;;2.99;;
14890;SDS011;7537;48.014;11.590;2023-07-20T00:14:09;3.50;;;3.06;;
14890;SDS011;7537;48.014;11.590;2023-07-20T00:19:36;7.43;;;3.18;;
14890;SDS011;7537;48.014;11.590;2023-07-20T00:25:05;4.43;;;3.32;;
14890;SDS011;7537;48.014;11.590;2023-07-20T00:30:32;3.09;;;2.82;;
14890;SDS011;7537;48.014;11.590;2023-07-20T00:35:59;3.48;;;2.39;;
14890;SDS011;7537;48.014;11.590;2023-07-20T00:41:27;4.85;;;3.50;;
14890;SDS011;7537;48.014;11.590;2023-07-20T00:46:54;4.27;;;3.16;;
14890;SDS011;7537;48.014;11.590;2023-07-20T00:52:22;2.92;;;3.04;;
14890;SDS011;7537;48.014;11.590;2023-07-20T00:57:50;2.97;;;3.01;;
14890;SDS011;7537;48.014;11.590;2023-07-20T01:03:37;2.73;;;2.59;;
14890;SDS011;7537;48.014;11.590;2023-07-20T01:09:13;5.44;;;3.30;;
14890;SDS011;7537;48.014;11.590;2023-07-20T01:14:40;2.96;;;2.74;;
14890;SDS011;7537;48.014;11.590;2023-07-20T01:20:10;2.34;;;2.36;;
14890;SDS011;7537;48.014;11.590;2023-07-20T01:26:02;2.55;;;2.43;;
14890;SDS011;7537;48.014;11.590;2023-07-20T01:31:35;3.29;;;2.71;;
14890;SDS011;7537;48.014;11.590;2023-07-20T01:37:04;4.37;;;3.33;;
14890;SDS011;7537;48.014;11.590;2023-07-20T01:42:32;5.09;;;2.52;;
14890;SDS011;7537;48.014;11.590;2023-07-20T01:48:00;3.29;;;2.43;;
14890;SDS011;7537;48.014;11.590;2023-07-20T01:53:28;3.22;;;2.69;;
14890;SDS011;7537;48.014;11.590;2023-07-20T01:58:55;5.12;;;2.57;;
14890;SDS011;7537;48.014;11.590;2023-07-20T02:04:23;4.45;;;2.85;;
14890;SDS011;7537;48.014;11.590;2023-07-20T02:09:58;5.71;;;2.61;;
14890;SDS011;7537;48.014;11.590;2023-07-20T02:15:26;2.91;;;2.76;;
14890;SDS011;7537;48.014;11.590;2023-07-20T02:20:54;3.47;;;2.71;;
14890;SDS011;7537;48.014;11.590;2023-07-20T02:26:21;2.92;;;2.69;;
14890;SDS011;7537;48.014;11.590;2023-07-20T02:31:49;2.54;;;2.69;;
14890;SDS011;7537;48.014;11.590;2023-07-20T02:37:16;2.74;;;2.44;;
14890;SDS011;7537;48.014;11.590;2023-07-20T02:42:44;3.09;;;3.09;;
14890;SDS011;7537;48.014;11.590;2023-07-20T02:48:11;3.28;;;2.27;;
14890;SDS011;7537;48.014;11.590;2023-07-20T02:53:45;3.31;;;3.00;;
14890;SDS011;7537;48.014;11.590;2023-07-20T02:59:12;3.55;;;2.23;;
14890;SDS011;7537;48.014;11.590;2023-07-20T03:04:43;2.76;;;2.57;;
14890;SDS011;7537;48.014;11.590;2023-07-20T03:10:14;3.32;;;2.19;;
14890;SDS011;7537;48.014;11.590;2023-07-20T03:15:42;2.11;;;2.14;;
14890;SDS011;7537;48.014;11.590;2023-07-20T03:21:10;2.44;;;1.89;;
14890;SDS011;7537;48.014;11.590;2023-07-20T03:26:40;4.21;;;1.67;;
14890;SDS011;7537;48.014;11.590;2023-07-20T03:32:08;2.21;;;1.92;;
14890;SDS011;7537;48.014;11.590;2023-07-20T03:37:37;3.26;;;2.49;;
14890;SDS011;7537;48.014;11.590;2023-07-20T03:43:05;1.81;;;1.88;;
14890;SDS011;7537;48.014;11.590;2023-07-20T03:48:33;2.47;;;1.65;;
14890;SDS011;7537;48.014;11.590;2023-07-20T03:54:00;4.20;;;1.91;;
14890;SDS011;7537;48.014;11.590;2023-07-20T03:59:28;2.36;;;2.21;;
14890;SDS011;7537;48.014;11.590;2023-07-20T04:04:55;2.28;;;1.71;;
14890;SDS011;7537;48.014;11.590;2023-07-20T04:10:26;2.57;;;2.26;;
14890;SDS011;7537;48.014;11.590;2023-07-20T04:15:53;3.48;;;1.97;;
14890;SDS011;7537;48.014;11.590;2023-07-20T04:21:21;2.44;;;1.81;;
14890;SDS011;7537;48.014;11.590;2023-07-20T04:26:48;2.41;;;2.02;;
14890;SDS011;7537;48.014;11.590;2023-07-20T04:32:16;2.70;;;1.80;;
14890;SDS011;7537;48.014;11.590;2023-07-20T04:37:45;1.53;;;1.58;;
14890;SDS011;7537;48.014;11.590;2023-07-20T04:43:13;5.12;;;1.87;;
14890;SDS011;7537;48.014;11.590;2023-07-20T04:48:44;4.53;;;2.53;;
14890;SDS011;7537;48.014;11.590;2023-07-20T04:54:11;4.66;;;2.58;;
14890;SDS011;7537;48.014;11.590;2023-07-20T04:59:39;1.70;;;1.80;;
14890;SDS011;7537;48.014;11.590;2023-07-20T05:05:07;1.92;;;1.77;;
14890;SDS011;7537;48.014;11.590;2023-07-20T05:10:41;1.87;;;1.62;;
14890;SDS011;7537;48.014;11.590;2023-07-20T05:16:09;2.32;;;1.71;;
14890;SDS011;7537;48.014;11.590;2023-07-20T05:21:36;4.51;;;2.23;;
14890;SDS011;7537;48.014;11.590;2023-07-20T05:27:04;2.24;;;2.34;;
14890;SDS011;7537;48.014;11.590;2023-07-20T05:32:31;2.04;;;2.06;;
14890;SDS011;7537;48.014;11.590;2023-07-20T05:37:59;4.08;;;2.23;;
14890;SDS011;7537;48.014;11.590;2023-07-20T05:43:27;1.91;;;1.79;;
14890;SDS011;7537;48.014;11.590;2023-07-20T05:48:54;1.94;;;2.02;;
14890;SDS011;7537;48.014;11.590;2023-07-20T05:54:23;3.71;;;2.12;;
14890;SDS011;7537;48.014;11.590;2023-07-20T05:59:51;4.80;;;2.06;;
14890;SDS011;7537;48.014;11.590;2023-07-20T06:05:18;1.98;;;1.94;;
14890;SDS011;7537;48.014;11.590;2023-07-20T06:10:50;2.66;;;1.91;;
14890;SDS011;7537;48.014;11.590;2023-07-20T06:16:18;1.83;;;1.83;;
14890;SDS011;7537;48.014;11.590;2023-07-20T06:21:48;4.28;;;3.36;;
14890;SDS011;7537;48.014;11.590;2023-07-20T06:27:15;1.94;;;1.79;;
14890;SDS011;7537;48.014;11.590;2023-07-20T06:32:44;1.56;;;1.62;;
14890;SDS011;7537;48.014;11.590;2023-07-20T06:38:12;2.56;;;2.39;;
14890;SDS011;7537;48.014;11.590;2023-07-20T06:43:41;6.63;;;2.46;;
14890;SDS011;7537;48.014;11.590;2023-07-20T06:49:09;1.98;;;1.92;;
14890;SDS011;7537;48.014;11.590;2023-07-20T06:54:36;2.23;;;2.26;;
14890;SDS011;7537;48.014;11.590;2023-07-20T07:00:11;2.41;;;1.90;;
14890;SDS011;7537;48.014;11.590;2023-07-20T07:05:39;2.50;;;2.37;;
14890;SDS011;7537;48.014;11.590;2023-07-20T07:11:10;4.93;;;2.31;;
14890;SDS011;7537;48.014;11.590;2023-07-20T07:16:42;6.12;;;2.24;;
14890;SDS011;7537;48.014;11.590;2023-07-20T07:22:12;2.24;;;2.22;;
14890;SDS011;7537;48.014;11.590;2023-07-20T07:27:40;1.32;;;1.44;;
14890;SDS011;7537;48.014;11.590;2023-07-20T07:33:07;3.37;;;2.13;;
14890;SDS011;7537;48.014;11.590;2023-07-20T07:38:38;3.29;;;1.82;;
14890;SDS011;7537;48.014;11.590;2023-07-20T07:44:05;1.91;;;1.71;;
14890;SDS011;7537;48.014;11.590;2023-07-20T07:49:33;6.07;;;2.52;;
14890;SDS011;7537;48.014;11.590;2023-07-20T07:55:01;3.34;;;2.01;;
14890;SDS011;7537;48.014;11.590;2023-07-20T08:00:28;2.77;;;2.35;;
14890;SDS011;7537;48.014;11.590;2023-07-20T08:05:56;2.29;;;2.24;;
14890;SDS011;7537;48.014;11.590;2023-07-20T08:11:28;2.43;;;2.46;;
14890;SDS011;7537;48.014;11.590;2023-07-20T08:16:56;7.05;;;2.16;;
14890;SDS011;7537;48.014;11.590;2023-07-20T08:22:23;2.96;;;2.33;;
14890;SDS011;7537;48.014;11.590;2023-07-20T08:27:51;2.56;;;2.27;;
14890;SDS011;7537;48.014;11.590;2023-07-20T08:33:18;2.60;;;2.64;;
14890;SDS011;7537;48.014;11.590;2023-07-20T08:38:46;2.63;;;2.21;;
14890;SDS011;7537;48.014;11.590;2023-07-20T08:44:14;2.88;;;1.86;;
14890;SDS011;7537;48.014;11.590;2023-07-20T08:49:41;4.84;;;1.84;;
14890;SDS011;7537;48.014;11.590;2023-07-20T08:55:11;4.96;;;2.27;;
14890;SDS011;7537;48.014;11.590;2023-07-20T09:00:40;2.52;;;2.13;;
14890;SDS011;7537;48.014;11.590;2023-07-20T09:06:13;2.11;;;2.24;;
14890;SDS011;7537;48.014;11.590;2023-07-20T09:11:47;2.14;;;2.30;;
14890;SDS011;7537;48.014;11.590;2023-07-20T09:17:14;1.58;;;1.63;;
14890;SDS011;7537;48.014;11.590;2023-07-20T09:22:44;2.04;;;2.02;;
14890;SDS011;7537;48.014;11.590;2023-07-20T09:28:11;4.63;;;2.61;;
14890;SDS011;7537;48.014;11.590;2023-07-20T09:33:39;1.67;;;1.78;;
14890;SDS011;7537;48.014;11.590;2023-07-20T09:39:07;3.17;;;1.74;;
14890;SDS011;7537;48.014;11.590;2023-07-20T09:44:35;2.45;;;1.57;;
14890;SDS011;7537;48.014;11.590;2023-07-20T09:50:03;2.23;;;1.46;;
14890;SDS011;7537;48.014;11.590;2023-07-20T09:55:31;1.45;;;1.54;;
14890;SDS011;7537;48.014;11.590;2023-07-20T10:01:00;2.79;;;2.35;;
14890;SDS011;7537;48.014;11.590;2023-07-20T10:06:30;1.97;;;2.09;;
14890;SDS011;7537;48.014;11.590;2023-07-20T10:12:05;3.88;;;2.03;;
14890;SDS011;7537;48.014;11.590;2023-07-20T10:17:33;2.08;;;2.11;;
14890;SDS011;7537;48.014;11.590;2023-07-20T10:23:03;2.49;;;2.31;;
14890;SDS011;7537;48.014;11.590;2023-07-20T10:28:31;1.83;;;1.48;;
14890;SDS011;7537;48.014;11.590;2023-07-20T10:33:59;3.87;;;2.10;;
14890;SDS011;7537;48.014;11.590;2023-07-20T10:39:27;2.49;;;1.97;;
14890;SDS011;7537;48.014;11.590;2023-07-20T10:44:55;2.69;;;2.49;;
14890;SDS011;7537;48.014;11.590;2023-07-20T10:50:22;5.38;;;1.93;;
14890;SDS011;7537;48.014;11.590;2023-07-20T10:55:50;2.61;;;1.97;;
14890;SDS011;7537;48.014;11.590;2023-07-20T11:01:35;4.85;;;2.27;;
14890;SDS011;7537;48.014;11.590;2023-07-20T11:07:04;1.86;;;1.89;;
14890;SDS011;7537;48.014;11.590;2023-07-20T11:12:35;1.61;;;1.69;;
14890;SDS011;7537;48.014;11.590;2023-07-20T11:18:11;5.29;;;2.12;;
14890;SDS011;7537;48.014;11.590;2023-07-20T11:23:40;2.56;;;1.87;;
14890;SDS011;7537;48.014;11.590;2023-07-20T11:29:08;1.82;;;1.93;;
14890;SDS011;7537;48.014;11.590;2023-07-20T11:34:36;4.95;;;1.83;;
14890;SDS011;7537;48.014;11.590;2023-07-20T11:40:06;2.94;;;2.07;;
14890;SDS011;7537;48.014;11.590;2023-07-20T11:45:40;2.98;;;1.99;;
14890;SDS011;7537;48.014;11.590;2023-07-20T11:51:25;1.81;;;1.90;;
14890;SDS011;7537;48.014;11.590;2023-07-20T11:56:56;2.03;;;1.61;;
14890;SDS011;7537;48.014;11.590;2023-07-20T12:02:22;1.92;;;1.61;;
14890;SDS011;7537;48.014;11.590;2023-07-20T12:07:49;4.05;;;1.97;;
14890;SDS011;7537;48.014;11.590;2023-07-20T12:13:20;3.31;;;1.86;;
14890;SDS011;7537;48.014;11.590;2023-07-20T12:18:48;3.61;;;1.50;;
14890;SDS011;7537;48.014;11.590;2023-07-20T12:24:15;1.54;;;1.51;;
14890;SDS011;7537;48.014;11.590;2023-07-20T12:29:45;2.31;;;2.31;;
14890;SDS011;7537;48.014;11.590;2023-07-20T12:35:15;3.21;;;2.24;;
14890;SDS011;7537;48.014;11.590;2023-07-20T12:40:42;6.79;;;1.76;;
14890;SDS011;7537;48.014;11.590;2023-07-20T12:46:10;4.13;;;1.91;;
14890;SDS011;7537;48.014;11.590;2023-07-20T12:51:44;1.05;;;1.19;;
14890;SDS011;7537;48.014;11.590;2023-07-20T12:57:12;1.49;;;1.58;;
14890;SDS011;7537;48.014;11.590;2023-07-20T13:02:39;2.49;;;2.36;;
14890;SDS011;7537;48.014;11.590;2023-07-20T13:08:07;1.79;;;1.58;;
14890;SDS011;7537;48.014;11.590;2023-07-20T13:13:38;3.41;;;1.66;;
14890;SDS011;7537;48.014;11.590;2023-07-20T13:19:05;4.09;;;2.43;;
14890;SDS011;7537;48.014;11.590;2023-07-20T13:24:33;1.90;;;1.96;;
14890;SDS011;7537;48.014;11.590;2023-07-20T13:30:00;1.89;;;1.73;;
14890;SDS011;7537;48.014;11.590;2023-07-20T13:35:28;1.94;;;1.87;;
14890;SDS011;7537;48.014;11.590;2023-07-20T13:40:56;2.45;;;2.17;;
14890;SDS011;7537;48.014;11.590;2023-07-20T13:46:23;1.75;;;1.79;;
14890;SDS011;7537;48.014;11.590;2023-07-20T13:51:51;1.81;;;1.91;;
14890;SDS011;7537;48.014;11.590;2023-07-20T13:57:24;5.08;;;2.13;;
14890;SDS011;7537;48.014;11.590;2023-07-20T14:02:52;1.52;;;1.42;;
14890;SDS011;7537;48.014;11.590;2023-07-20T14:08:20;3.44;;;1.86;;
14890;SDS011;7537;48.014;11.590;2023-07-20T14:13:52;3.75;;;1.56;;
14890;SDS011;7537;48.014;11.590;2023-07-20T14:19:18;1.89;;;1.15;;
14890;SDS011;7537;48.014;11.590;2023-07-20T14:24:54;5.52;;;2.40;;
14890;SDS011;7537;48.014;11.590;2023-07-20T14:30:25;3.77;;;1.69;;
14890;SDS011;7537;48.014;11.590;2023-07-20T14:35:53;1.88;;;1.98;;
14890;SDS011;7537;48.014;11.590;2023-07-20T14:41:21;2.18;;;1.48;;
14890;SDS011;7537;48.014;11.590;2023-07-20T14:46:48;1.43;;;1.45;;
14890;SDS011;7537;48.014;11.590;2023-07-20T14:52:17;1.91;;;2.02;;
14890;SDS011;7537;48.014;11.590;2023-07-20T14:57:45;4.03;;;1.78;;
14890;SDS011;7537;48.014;11.590;2023-07-20T15:03:12;2.44;;;1.97;;
14890;SDS011;7537;48.014;11.590;2023-07-20T15:08:41;1.70;;;1.74;;
14890;SDS011;7537;48.014;11.590;2023-07-20T15:14:16;2.81;;;1.45;;
14890;SDS011;7537;48.014;11.590;2023-07-20T15:19:43;3.44;;;2.04;;
14890;SDS011;7537;48.014;11.590;2023-07-20T15:25:11;1.60;;;1.45;;
14890;SDS011;7537;48.014;11.590;2023-07-20T15:31:02;2.72;;;1.79;;
14890;SDS011;7537;48.014;11.590;2023-07-20T15:36:30;1.73;;;1.56;;
14890;SDS011;7537;48.014;11.590;2023-07-20T15:41:57;2.01;;;1.51;;
14890;SDS011;7537;48.014;11.590;2023-07-20T15:47:25;1.88;;;1.76;;
14890;SDS011;7537;48.014;11.590;2023-07-20T15:52:54;1.64;;;1.61;;
14890;SDS011;7537;48.014;11.590;2023-07-20T15:58:23;1.14;;;1.24;;
14890;SDS011;7537;48.014;11.590;2023-07-20T16:04:00;3.14;;;1.19;;
14890;SDS011;7537;48.014;11.590;2023-07-20T16:09:31;1.51;;;1.56;;
14890;SDS011;7537;48.014;11.590;2023-07-20T16:15:02;2.57;;;1.84;;
14890;SDS011;7537;48.014;11.590;2023-07-20T16:20:30;4.73;;;1.76;;
14890;SDS011;7537;48.014;11.590;2023-07-20T16:25:57;3.32;;;1.47;;
14890;SDS011;7537;48.014;11.590;2023-07-20T16:31:25;1.54;;;1.59;;
14890;SDS011;7537;48.014;11.590;2023-07-20T16:36:53;3.09;;;1.76;;
14890;SDS011;7537;48.014;11.590;2023-07-20T16:42:22;2.38;;;1.93;;
14890;SDS011;7537;48.014;11.590;2023-07-20T16:47:49;2.32;;;1.65;;
14890;SDS011;7537;48.014;11.590;2023-07-20T16:53:17;2.64;;;2.30;;
14890;SDS011;7537;48.014;11.590;2023-07-20T16:58:44;2.05;;;1.79;;
14890;SDS011;7537;48.014;11.590;2023-07-20T17:04:12;2.42;;;1.79;;
14890;SDS011;7537;48.014;11.590;2023-07-20T17:09:48;1.59;;;1.67;;
14890;SDS011;7537;48.014;11.590;2023-07-20T17:15:19;2.54;;;1.84;;
14890;SDS011;7537;48.014;11.590;2023-07-20T17:20:47;2.37;;;1.73;;
14890;SDS011;7537;48.014;11.590;2023-07-20T17:26:14;2.14;;;2.01;;
14890;SDS011;7537;48.014;11.590;2023-07-20T17:31:42;1.80;;;1.54;;
14890;SDS011;7537;48.014;11.590;2023-07-20T17:37:09;1.74;;;1.66;;
14890;SDS011;7537;48.014;11.590;2023-07-20T17:42:40;2.59;;;1.61;;
14890;SDS011;7537;48.014;11.590;2023-07-20T17:48:08;2.08;;;2.04;;
14890;SDS011;7537;48.014;11.590;2023-07-20T17:53:35;3.73;;;1.84;;
14890;SDS011;7537;48.014;11.590;2023-07-20T17:59:03;1.64;;;1.58;;
14890;SDS011;7537;48.014;11.590;2023-07-20T18:04:34;2.31;;;2.19;;
14890;SDS011;7537;48.014;11.590;2023-07-20T18:10:02;5.61;;;1.76;;
14890;SDS011;7537;48.014;11.590;2023-07-20T18:15:33;2.15;;;2.22;;
14890;SDS011;7537;48.014;11.590;2023-07-20T18:21:01;1.52;;;1.57;;
14890;SDS011;7537;48.014;11.590;2023-07-20T18:26:33;1.89;;;1.96;;
14890;SDS011;7537;48.014;11.590;2023-07-20T18:32:00;2.14;;;2.04;;
14890;SDS011;7537;48.014;11.590;2023-07-20T18:37:28;2.09;;;1.96;;
14890;SDS011;7537;48.014;11.590;2023-07-20T18:42:56;1.76;;;1.84;;
14890;SDS011;7537;48.014;11.590;2023-07-20T18:48:24;2.23;;;2.01;;
14890;SDS011;7537;48.014;11.590;2023-07-20T18:53:51;2.78;;;2.07;;
14890;SDS011;7537;48.014;11.590;2023-07-20T18:59:19;3.75;;;2.41;;
14890;SDS011;7537;48.014;11.590;2023-07-20T19:05:04;3.08;;;2.23;;
14890;SDS011;7537;48.014;11.590;2023-07-20T19:10:38;2.14;;;1.79;;
14890;SDS011;7537;48.014;11.590;2023-07-20T19:16:09;3.86;;;2.08;;
14890;SDS011;7537;48.014;11.590;2023-07-20T19:21:37;4.84;;;2.26;;
14890;SDS011;7537;48.014;11.590;2023-07-20T19:27:07;5.26;;;1.92;;
14890;SDS011;7537;48.014;11.590;2023-07-20T19:32:34;2.14;;;1.93;;
14890;SDS011;7537;48.014;11.590;2023-07-20T19:38:02;2.46;;;2.30;;
14890;SDS011;7537;48.014;11.590;2023-07-20T19:43:30;2.67;;;2.06;;
14890;SDS011;7537;48.014;11.590;2023-07-20T19:48:57;2.66;;;2.39;;
14890;SDS011;7537;48.014;11.590;2023-07-20T19:54:25;2.04;;;1.93;;
14890;SDS011;7537;48.014;11.590;2023-07-20T19:59:55;2.01;;;2.11;;
14890;SDS011;7537;48.014;11.590;2023-07-20T20:05:21;2.00;;;2.01;;
14890;SDS011;7537;48.014;11.590;2023-07-20T20:10:52;3.13;;;2.50;;
14890;SDS011;7537;48.014;11.590;2023-07-20T20:16:24;2.64;;;2.31;;
14890;SDS011;7537;48.014;11.590;2023-07-20T20:21:53;3.25;;;1.77;;
14890;SDS011;7537;48.014;11.590;2023-07-20T20:27:20;2.23;;;1.99;;
14890;SDS011;7537;48.014;11.590;2023-07-20T20:32:48;1.97;;;2.03;;
14890;SDS011;7537;48.014;11.590;2023-07-20T20:38:15;2.36;;;2.36;;
14890;SDS011;7537;48.014;11.590;2023-07-20T20:43:43;4.68;;;2.46;;
14890;SDS011;7537;48.014;11.590;2023-07-20T20:49:10;2.33;;;2.39;;
14890;SDS011;7537;48.014;11.590;2023-07-20T20:54:38;2.40;;;2.50;;
14890;SDS011;7537;48.014;11.590;2023-07-20T21:00:07;5.42;;;2.09;;
14890;SDS011;7537;48.014;11.590;2023-07-20T21:05:35;2.28;;;2.29;;
14890;SDS011;7537;48.014;11.590;2023-07-20T21:11:02;2.88;;;2.41;;
14890;SDS011;7537;48.014;11.590;2023-07-20T21:16:33;3.55;;;2.93;;
14890;SDS011;7537;48.014;11.590;2023-07-20T21:22:01;2.93;;;2.52;;
14890;SDS011;7537;48.014;11.590;2023-07-20T21:27:29;2.39;;;2.49;;
14890;SDS011;7537;48.014;11.590;2023-07-20T21:34:37;2.34;;;2.29;;
14890;SDS011;7537;48.014;11.590;2023-07-20T21:40:06;2.78;;;2.86;;
14890;SDS011;7537;48.014;11.590;2023-07-20T21:45:37;2.58;;;2.21;;
14890;SDS011;7537;48.014;11.590;2023-07-20T21:51:05;3.29;;;2.51;;
14890;SDS011;7537;48.014;11.590;2023-07-20T21:56:35;2.91;;;2.45;;
14890;SDS011;7537;48.014;11.590;2023-07-20T22:02:03;3.20;;;2.09;;
14890;SDS011;7537;48.014;11.590;2023-07-20T22:07:31;2.58;;;2.60;;
14890;SDS011;7537;48.014;11.590;2023-07-20T22:13:00;2.78;;;2.53;;
14890;SDS011;7537;48.014;11.590;2023-07-20T22:18:28;3.76;;;2.50;;
14890;SDS011;7537;48.014;11.590;2023-07-20T22:23:56;2.32;;;2.48;;
14890;SDS011;7537;48.014;11.590;2023-07-20T22:29:21;2.77;;;2.81;;
14890;SDS011;7537;48.014;11.590;2023-07-20T22:34:57;3.73;;;2.71;;
14890;SDS011;7537;48.014;11.590;2023-07-20T22:40:26;6.84;;;2.64;;
14890;SDS011;7537;48.014;11.590;2023-07-20T22:45:54;3.42;;;2.66;;
14890;SDS011;7537;48.014;11.590;2023-07-20T22:51:22;3.07;;;3.14;;
14890;SDS011;7537;48.014;11.590;2023-07-20T22:56:50;4.18;;;2.52;;
14890;SDS011;7537;48.014;11.590;2023-07-20T23:02:17;2.51;;;2.47;;
14890;SDS011;7537;48.014;11.590;2023-07-20T23:07:45;2.53;;;2.47;;
14890;SDS011;7537;48.014;11.590;2023-07-20T23:13:16;5.18;;;2.64;;
14890;SDS011;7537;48.014;11.590;2023-07-20T23:18:43;2.53;;;2.63;;
14890;SDS011;7537;48.014;11.590;2023-07-20T23:24:11;2.79;;;2.95;;
14890;SDS011;7537;48.014;11.590;2023-07-20T23:29:43;2.46;;;2.54;;
14890;SDS011;7537;48.014;11.590;2023-07-20T23:35:14;4.33;;;2.92;;
14890;SDS011;7537;48.014;11.590;2023-07-20T23:40:41;2.39;;;2.53;;
14890;SDS011;7537;48.014;11.590;2023-07-20T23:46:10;3.13;;;3.17;;
14890;SDS011;7537;48.014;11.590;2023-07-20T23:51:37;4.24;;;3.62;;
14890;SDS011;7537;48.014;11.590;2023-07-20T23:57:06;3.48;;;3.54;;
